Time;durP1;ratioP1;P1;durP2;ratioP2;P2;SDS_P1;SDS_P2;PMS_P1;PMS_P2;Temp;Humidity;BMP_temperature;BMP_pressure;BME280_temperature;BME280_humidity;BME280_pressure;Samples;Min_cycle;Max_cycle;Signal;HPM_P1;HPM_P2
2023/05/17 00:00:26;;;;;;;11.67;10.40;;;9.40;99.90;;;;;;5042285;28;20441;-74
2023/05/17 00:02:53;;;;;;;14.13;11.60;;;9.40;99.90;;;;;;5043823;28;20462;-75
2023/05/17 00:05:20;;;;;;;14.13;12.27;;;9.40;99.90;;;;;;5042879;28;20437;-74
2023/05/17 00:07:48;;;;;;;15.33;13.17;;;9.30;99.90;;;;;;5042116;28;20469;-74
2023/05/17 00:10:15;;;;;;;15.03;12.03;;;9.30;99.90;;;;;;5042836;28;20464;-74
2023/05/17 00:12:42;;;;;;;15.13;12.27;;;9.30;99.90;;;;;;5043458;28;20507;-75
2023/05/17 00:15:10;;;;;;;15.97;11.50;;;9.30;99.90;;;;;;5043210;28;20526;-74
2023/05/17 00:17:37;;;;;;;17.00;13.93;;;9.30;99.90;;;;;;5041515;28;20465;-73
2023/05/17 00:20:04;;;;;;;17.07;13.27;;;9.20;99.90;;;;;;5042538;28;20457;-77
2023/05/17 00:22:31;;;;;;;14.53;11.00;;;9.20;99.90;;;;;;5043831;28;20458;-77
2023/05/17 00:24:59;;;;;;;14.23;12.03;;;9.10;99.90;;;;;;5042411;28;20992;-74
2023/05/17 00:27:26;;;;;;;18.67;13.97;;;9.10;99.90;;;;;;5043700;28;20473;-74
2023/05/17 00:29:53;;;;;;;13.47;11.57;;;9.10;99.90;;;;;;5043701;28;20445;-74
2023/05/17 00:32:20;;;;;;;13.43;11.73;;;9.10;99.90;;;;;;5043667;28;20994;-74
2023/05/17 00:34:47;;;;;;;13.90;11.07;;;9.00;99.90;;;;;;5042945;28;20490;-74
2023/05/17 00:37:14;;;;;;;15.80;11.60;;;9.00;99.90;;;;;;5041075;28;20565;-74
2023/05/17 00:39:41;;;;;;;13.50;12.10;;;9.10;99.90;;;;;;5042229;28;20485;-75
2023/05/17 00:42:11;;;;;;;14.33;11.10;;;9.00;99.90;;;;;;5043176;28;20507;-78
2023/05/17 00:44:38;;;;;;;13.77;11.47;;;9.10;99.90;;;;;;5044252;28;20473;-73
2023/05/17 00:47:05;;;;;;;13.90;12.17;;;9.00;99.90;;;;;;5042488;28;20532;-75
2023/05/17 00:49:32;;;;;;;14.13;10.77;;;9.00;99.90;;;;;;5042893;28;20462;-72
2023/05/17 00:51:59;;;;;;;12.30;11.10;;;9.00;99.90;;;;;;5042855;28;20453;-73
2023/05/17 00:54:26;;;;;;;10.80;9.80;;;9.00;99.90;;;;;;5043168;28;20457;-73
2023/05/17 00:56:55;;;;;;;12.83;11.50;;;9.00;99.90;;;;;;5043531;28;20542;-76
2023/05/17 00:59:26;;;;;;;10.87;9.73;;;9.00;99.90;;;;;;5042523;28;20456;-74
2023/05/17 01:01:53;;;;;;;12.30;10.30;;;9.00;99.90;;;;;;5041303;28;20493;-77
2023/05/17 01:04:21;;;;;;;13.30;9.50;;;9.00;99.90;;;;;;5043188;28;20778;-74
2023/05/17 01:06:48;;;;;;;11.87;10.67;;;9.00;99.90;;;;;;5042668;28;20485;-74
2023/05/17 01:09:15;;;;;;;11.10;9.43;;;9.00;99.90;;;;;;5042069;28;20481;-74
2023/05/17 01:11:52;;;;;;;11.87;8.67;;;8.90;99.90;;;;;;5041627;28;20464;-79
2023/05/17 01:14:33;;;;;;;19.87;11.23;;;8.90;99.90;;;;;;5041500;28;20494;-74
2023/05/17 01:17:05;;;;;;;11.60;9.40;;;8.80;99.90;;;;;;5041250;28;20493;-77
2023/05/17 01:19:54;;;;;;;10.47;9.10;;;8.80;99.90;;;;;;5041165;28;20445;-77
2023/05/17 01:22:38;;;;;;;15.97;8.60;;;8.80;99.90;;;;;;5043433;28;20849;-76
2023/05/17 01:25:17;;;;;;;9.77;8.70;;;8.80;99.90;;;;;;5041743;28;20844;-72
2023/05/17 01:27:49;;;;;;;9.30;8.40;;;8.70;99.90;;;;;;5041226;28;20481;-74
2023/05/17 01:30:17;;;;;;;25.73;9.00;;;8.70;99.90;;;;;;5042752;28;20446;-78
2023/05/17 01:32:46;;;;;;;9.20;8.40;;;8.70;99.90;;;;;;5043005;28;20461;-74
2023/05/17 01:35:13;;;;;;;11.03;8.73;;;8.70;99.90;;;;;;5037189;28;20449;-78
2023/05/17 01:37:40;;;;;;;10.53;8.27;;;8.70;99.90;;;;;;5043069;28;20514;-74
2023/05/17 01:40:09;;;;;;;11.70;8.33;;;8.70;99.90;;;;;;5040526;28;20485;-79
2023/05/17 01:42:39;;;;;;;18.40;8.27;;;8.60;99.90;;;;;;5041525;28;20520;-77
2023/05/17 01:45:17;;;;;;;8.50;7.70;;;8.70;99.90;;;;;;5041413;28;20479;-74
2023/05/17 01:47:50;;;;;;;9.63;7.00;;;8.60;99.90;;;;;;5042322;28;20693;-74
2023/05/17 01:50:22;;;;;;;13.50;7.73;;;8.60;99.90;;;;;;5041362;28;21003;-78
2023/05/17 01:52:53;;;;;;;7.47;6.67;;;8.50;99.90;;;;;;5042136;28;20491;-74
2023/05/17 01:55:26;;;;;;;9.57;6.43;;;8.50;99.90;;;;;;5040691;28;20493;-72
2023/05/17 01:57:55;;;;;;;11.27;7.07;;;8.50;99.90;;;;;;5041098;28;20555;-74
2023/05/17 02:00:26;;;;;;;6.17;5.10;;;8.50;99.90;;;;;;5040466;28;20467;-75
2023/05/17 02:02:53;;;;;;;5.63;4.97;;;8.50;99.90;;;;;;5042136;28;20445;-76
2023/05/17 02:05:20;;;;;;;7.10;5.50;;;8.50;99.90;;;;;;5039671;28;20473;-74
2023/05/17 02:07:47;;;;;;;6.90;6.03;;;8.40;99.90;;;;;;5041511;28;20476;-72
2023/05/17 02:10:14;;;;;;;6.53;6.03;;;8.50;99.90;;;;;;5040375;28;20502;-73
2023/05/17 02:12:41;;;;;;;8.90;5.33;;;8.50;99.90;;;;;;5042343;28;20554;-75
2023/05/17 02:15:10;;;;;;;18.17;6.20;;;8.40;99.90;;;;;;5040765;28;20500;-73
2023/05/17 02:17:39;;;;;;;10.43;4.93;;;8.40;99.90;;;;;;5040907;28;21293;-73
2023/05/17 02:20:08;;;;;;;6.27;4.83;;;8.40;99.90;;;;;;5040554;28;20453;-73
2023/05/17 02:22:35;;;;;;;5.60;4.73;;;8.40;99.90;;;;;;5040454;28;20497;-73
2023/05/17 02:25:02;;;;;;;5.17;4.40;;;8.40;99.90;;;;;;5041253;28;20787;-74
2023/05/17 02:27:29;;;;;;;8.00;5.47;;;8.30;99.90;;;;;;5040159;28;20485;-77
2023/05/17 02:29:56;;;;;;;8.53;5.10;;;8.30;99.90;;;;;;5039095;28;20563;-74
2023/05/17 02:32:23;;;;;;;8.33;4.80;;;8.30;99.90;;;;;;5040820;28;20454;-73
2023/05/17 02:34:52;;;;;;;12.60;5.90;;;8.30;99.90;;;;;;5038951;28;20487;-75
2023/05/17 02:37:19;;;;;;;8.07;5.10;;;8.30;99.90;;;;;;5041787;28;21128;-73
2023/05/17 02:39:46;;;;;;;5.33;4.67;;;8.30;99.90;;;;;;5039696;28;20514;-76
2023/05/17 02:42:13;;;;;;;7.80;4.73;;;8.30;99.90;;;;;;5040575;28;20495;-77
2023/05/17 02:44:40;;;;;;;9.70;4.90;;;8.30;99.90;;;;;;5040511;28;20516;-74
2023/05/17 02:47:07;;;;;;;5.70;4.87;;;8.30;99.90;;;;;;5040518;28;20492;-73
2023/05/17 02:49:34;;;;;;;9.47;4.70;;;8.30;99.90;;;;;;5040150;28;20523;-75
2023/05/17 02:52:02;;;;;;;6.70;3.83;;;8.30;99.90;;;;;;5041638;28;20548;-76
2023/05/17 02:54:30;;;;;;;6.63;4.57;;;8.30;99.90;;;;;;5039689;28;20457;-74
2023/05/17 02:56:57;;;;;;;6.27;5.67;;;8.20;99.90;;;;;;5044152;28;20510;-74
2023/05/17 02:59:24;;;;;;;8.13;4.20;;;8.20;99.90;;;;;;5043548;28;20464;-77
2023/05/17 03:01:51;;;;;;;9.60;4.47;;;8.20;99.90;;;;;;5044015;28;20468;-75
2023/05/17 03:04:19;;;;;;;4.40;4.03;;;8.20;99.90;;;;;;5045173;28;20481;-74
2023/05/17 03:06:46;;;;;;;13.70;5.50;;;8.20;99.90;;;;;;5043699;28;20480;-73
2023/05/17 03:09:14;;;;;;;8.13;4.70;;;8.20;99.90;;;;;;5044679;28;20522;-74
2023/05/17 03:11:41;;;;;;;5.90;5.43;;;8.20;99.90;;;;;;5044115;28;20960;-73
2023/05/17 03:14:08;;;;;;;7.07;4.57;;;8.10;99.90;;;;;;5043950;28;20469;-74
2023/05/17 03:16:35;;;;;;;5.53;4.90;;;8.10;99.90;;;;;;5043975;28;20465;-80
2023/05/17 03:19:02;;;;;;;7.27;4.80;;;8.10;99.90;;;;;;5044590;28;20518;-74
2023/05/17 03:21:29;;;;;;;6.10;4.93;;;8.10;99.90;;;;;;5045422;28;20441;-77
2023/05/17 03:23:56;;;;;;;8.20;4.83;;;8.10;99.90;;;;;;5044820;28;20869;-73
2023/05/17 03:26:26;;;;;;;7.60;4.30;;;8.00;99.90;;;;;;5043677;28;20465;-78
2023/05/17 03:28:53;;;;;;;11.43;6.13;;;8.10;99.90;;;;;;5041828;28;20465;-73
2023/05/17 03:31:20;;;;;;;6.47;5.07;;;8.10;99.90;;;;;;5044341;28;20493;-74
2023/05/17 03:33:47;;;;;;;13.00;5.47;;;8.10;99.90;;;;;;5047427;28;20460;-73
2023/05/17 03:36:14;;;;;;;8.20;5.60;;;8.10;99.90;;;;;;5042468;28;20433;-74
2023/05/17 03:38:41;;;;;;;5.53;4.53;;;8.10;99.90;;;;;;5044950;28;20428;-76
2023/05/17 03:41:08;;;;;;;6.07;5.50;;;8.10;99.90;;;;;;5042379;28;22367;-76
2023/05/17 03:43:36;;;;;;;6.33;5.83;;;8.10;99.90;;;;;;5043263;28;20541;-79
2023/05/17 03:46:03;;;;;;;8.03;4.90;;;8.10;99.90;;;;;;5040397;28;20468;-77
2023/05/17 03:48:30;;;;;;;5.50;5.00;;;8.10;99.90;;;;;;5041280;28;20509;-76
2023/05/17 03:50:57;;;;;;;8.47;5.93;;;8.10;99.90;;;;;;5043422;28;20465;-77
2023/05/17 03:53:24;;;;;;;9.80;6.90;;;8.10;99.90;;;;;;5041070;28;20461;-78
2023/05/17 03:55:51;;;;;;;10.43;7.00;;;8.10;99.90;;;;;;5042013;28;20547;-75
2023/05/17 03:58:18;;;;;;;8.17;7.30;;;8.10;99.90;;;;;;5043550;28;20465;-75
2023/05/17 04:00:47;;;;;;;8.30;7.40;;;8.10;99.90;;;;;;5041560;28;22125;-73
2023/05/17 04:03:14;;;;;;;9.30;6.73;;;8.10;99.90;;;;;;5041880;28;20959;-73
2023/05/17 04:05:41;;;;;;;11.70;7.67;;;8.10;99.90;;;;;;5042837;28;20476;-77
2023/05/17 04:08:08;;;;;;;9.60;7.53;;;8.10;99.90;;;;;;5041905;28;21040;-74
2023/05/17 04:10:35;;;;;;;7.47;6.80;;;8.10;99.90;;;;;;5041661;28;20500;-75
2023/05/17 04:13:02;;;;;;;12.60;7.40;;;8.20;99.90;;;;;;5043807;28;20492;-76
2023/05/17 04:15:29;;;;;;;11.80;7.40;;;8.20;99.90;;;;;;5039549;28;20528;-77
2023/05/17 04:17:58;;;;;;;9.83;8.23;;;8.20;99.90;;;;;;5040470;28;20477;-76
2023/05/17 04:20:25;;;;;;;10.03;7.90;;;8.20;99.90;;;;;;5041514;28;20477;-74
2023/05/17 04:22:52;;;;;;;14.17;8.87;;;8.20;99.90;;;;;;5042665;28;20499;-75
2023/05/17 04:25:19;;;;;;;9.97;7.00;;;8.20;99.90;;;;;;5040917;28;20560;-73
2023/05/17 04:27:46;;;;;;;9.17;8.27;;;8.20;99.90;;;;;;5040570;28;20566;-76
2023/05/17 04:30:13;;;;;;;9.30;7.07;;;8.20;99.90;;;;;;5040579;28;20457;-75
2023/05/17 04:32:41;;;;;;;8.10;7.30;;;8.20;99.90;;;;;;5041977;28;20465;-76
2023/05/17 04:35:10;;;;;;;10.00;7.80;;;8.20;99.90;;;;;;5038373;28;20497;-76
2023/05/17 04:37:39;;;;;;;9.03;7.90;;;8.20;99.90;;;;;;5031482;28;20867;-79
2023/05/17 04:40:07;;;;;;;12.20;7.60;;;8.20;99.90;;;;;;5036985;28;20461;-74
2023/05/17 04:42:34;;;;;;;10.23;8.00;;;8.20;99.90;;;;;;5040599;28;20461;-76
2023/05/17 04:45:01;;;;;;;10.87;9.57;;;8.20;99.90;;;;;;5041573;28;20495;-74
2023/05/17 04:47:28;;;;;;;12.40;9.27;;;8.20;99.90;;;;;;5039219;28;20485;-74
2023/05/17 04:49:55;;;;;;;10.40;8.70;;;8.20;99.90;;;;;;5041065;28;20461;-74
2023/05/17 04:52:24;;;;;;;11.67;9.40;;;8.20;99.90;;;;;;5042337;28;20475;-74
2023/05/17 04:54:51;;;;;;;13.47;9.50;;;8.20;99.90;;;;;;5040941;28;20458;-74
2023/05/17 04:57:20;;;;;;;12.60;9.43;;;8.20;99.90;;;;;;5041532;28;20463;-75
2023/05/17 04:59:47;;;;;;;13.07;8.57;;;8.20;99.90;;;;;;5040606;28;20629;-73
2023/05/17 05:02:14;;;;;;;10.00;8.40;;;8.20;99.90;;;;;;5041939;28;20461;-80
2023/05/17 05:04:41;;;;;;;12.27;9.40;;;8.20;99.90;;;;;;5040011;28;20635;-80
2023/05/17 05:07:07;;;;;;;12.80;9.67;;;8.20;99.90;;;;;;5042466;28;20512;-74
2023/05/17 05:09:36;;;;;;;15.23;9.00;;;8.20;99.90;;;;;;5041956;28;22249;-75
2023/05/17 05:12:03;;;;;;;10.67;8.10;;;8.20;99.90;;;;;;5041556;28;20470;-79
2023/05/17 05:14:30;;;;;;;11.20;10.00;;;8.20;99.90;;;;;;5041985;28;20464;-79
2023/05/17 05:16:57;;;;;;;10.03;9.10;;;8.20;99.90;;;;;;5041420;28;21004;-79
2023/05/17 05:19:24;;;;;;;12.60;10.43;;;8.30;99.90;;;;;;5039880;28;20976;-76
2023/05/17 05:21:51;;;;;;;14.33;9.57;;;8.30;99.90;;;;;;5041933;28;21979;-77
2023/05/17 05:24:18;;;;;;;10.53;9.63;;;8.30;99.90;;;;;;5042086;28;20874;-76
2023/05/17 05:26:46;;;;;;;11.80;9.00;;;8.30;99.90;;;;;;5041151;28;20565;-77
2023/05/17 05:29:13;;;;;;;12.70;9.60;;;8.30;99.90;;;;;;5040500;28;20972;-76
2023/05/17 05:31:40;;;;;;;10.30;9.20;;;8.30;99.90;;;;;;5041342;28;20469;-81
2023/05/17 05:34:07;;;;;;;12.90;9.13;;;8.20;99.90;;;;;;5040799;28;20905;-76
2023/05/17 05:36:34;;;;;;;11.33;9.33;;;8.20;99.90;;;;;;5040969;28;20505;-75
2023/05/17 05:39:01;;;;;;;10.90;9.00;;;8.20;99.90;;;;;;5041617;28;20465;-75
2023/05/17 05:41:28;;;;;;;12.53;8.23;;;8.20;99.90;;;;;;5041238;28;20464;-73
2023/05/17 05:43:57;;;;;;;12.17;9.40;;;8.20;99.90;;;;;;5036657;28;20737;-73
2023/05/17 05:46:24;;;;;;;11.07;9.63;;;8.20;99.90;;;;;;5040881;28;20903;-75
2023/05/17 05:48:51;;;;;;;11.50;8.70;;;8.20;99.90;;;;;;5040903;28;20481;-74
2023/05/17 05:51:18;;;;;;;10.80;9.17;;;8.10;99.90;;;;;;5039813;28;20473;-78
2023/05/17 05:53:45;;;;;;;10.63;8.90;;;8.20;99.90;;;;;;5039363;28;20471;-79
2023/05/17 05:56:12;;;;;;;11.90;9.50;;;8.20;99.90;;;;;;5039201;28;20473;-74
2023/05/17 05:58:39;;;;;;;10.33;7.60;;;8.20;99.90;;;;;;5040376;28;21086;-74
2023/05/17 06:01:07;;;;;;;9.87;7.27;;;8.10;99.90;;;;;;5040243;28;20503;-80
2023/05/17 06:03:34;;;;;;;7.70;6.03;;;8.00;99.90;;;;;;5032082;28;20484;-75
2023/05/17 06:06:01;;;;;;;7.53;5.93;;;8.00;99.90;;;;;;5038082;28;20543;-74
2023/05/17 06:08:28;;;;;;;10.60;6.17;;;8.00;99.90;;;;;;5038019;28;20480;-76
2023/05/17 06:10:55;;;;;;;7.47;5.77;;;7.90;99.90;;;;;;5041656;28;20465;-77
2023/05/17 06:13:22;;;;;;;11.83;5.23;;;7.80;99.90;;;;;;5036838;28;20465;-77
2023/05/17 06:15:49;;;;;;;7.10;6.40;;;7.80;99.90;;;;;;5040234;28;20488;-74
2023/05/17 06:18:18;;;;;;;5.80;4.07;;;7.80;99.90;;;;;;5039553;28;20853;-75
2023/05/17 06:20:45;;;;;;;10.00;4.57;;;7.80;99.90;;;;;;5038612;28;20519;-75
2023/05/17 06:23:12;;;;;;;11.30;5.00;;;7.80;99.90;;;;;;5040886;28;20449;-75
2023/05/17 06:25:40;;;;;;;16.83;5.80;;;7.80;99.90;;;;;;5038668;28;20468;-75
2023/05/17 06:28:08;;;;;;;6.43;4.80;;;7.80;99.90;;;;;;5038035;28;20484;-77
2023/05/17 06:30:35;;;;;;;6.87;3.60;;;7.80;99.90;;;;;;5039183;28;20453;-76
2023/05/17 06:33:02;;;;;;;5.23;3.47;;;7.80;99.90;;;;;;5040203;28;20489;-75
2023/05/17 06:35:30;;;;;;;4.23;2.60;;;7.80;99.90;;;;;;5037974;28;20480;-75
2023/05/17 06:37:57;;;;;;;4.37;3.43;;;7.80;99.90;;;;;;5040653;28;20518;-76
2023/05/17 06:40:24;;;;;;;7.70;2.90;;;7.70;99.90;;;;;;5040088;28;20554;-75
2023/05/17 06:42:51;;;;;;;4.83;4.33;;;7.70;99.90;;;;;;5040009;28;20507;-76
2023/05/17 06:45:18;;;;;;;6.77;3.60;;;7.80;99.90;;;;;;5039025;28;20480;-76
2023/05/17 06:47:45;;;;;;;5.40;2.70;;;7.90;99.90;;;;;;5041382;28;20579;-75
2023/05/17 06:50:12;;;;;;;4.87;3.20;;;7.80;99.90;;;;;;5039196;28;20473;-78
2023/05/17 06:52:40;;;;;;;6.00;2.37;;;7.80;99.90;;;;;;5037775;28;20472;-74
2023/05/17 06:55:08;;;;;;;9.80;4.53;;;7.70;99.90;;;;;;5038967;28;20535;-75
2023/05/17 06:57:35;;;;;;;6.80;2.67;;;7.80;99.90;;;;;;5040966;28;20465;-75
2023/05/17 07:00:05;;;;;;;11.63;5.27;;;7.80;99.90;;;;;;5039054;28;20778;-77
2023/05/17 07:02:32;;;;;;;10.90;6.43;;;7.80;99.90;;;;;;5038539;28;20468;-75
2023/05/17 07:04:59;;;;;;;10.37;7.93;;;7.80;99.90;;;;;;5040691;28;20445;-75
2023/05/17 07:07:28;;;;;;;6.73;3.70;;;7.90;99.90;;;;;;5039749;28;20472;-76
2023/05/17 07:09:57;;;;;;;4.57;1.90;;;7.90;99.90;;;;;;5038648;28;20515;-75
2023/05/17 07:12:24;;;;;;;8.73;5.00;;;7.80;99.90;;;;;;5038809;28;20522;-75
2023/05/17 07:14:51;;;;;;;5.17;2.43;;;7.90;99.90;;;;;;5039277;28;20558;-74
2023/05/17 07:17:18;;;;;;;3.53;1.97;;;8.00;99.90;;;;;;5039798;28;20469;-75
2023/05/17 07:19:49;;;;;;;4.67;2.60;;;8.00;99.90;;;;;;5039165;28;20469;-74
2023/05/17 07:22:16;;;;;;;12.43;5.90;;;8.00;99.90;;;;;;5039535;28;20457;-78
2023/05/17 07:24:43;;;;;;;18.37;10.50;;;8.00;99.90;;;;;;5039148;28;20456;-75
2023/05/17 07:27:12;;;;;;;10.60;4.00;;;8.00;99.90;;;;;;5037799;28;20558;-75
2023/05/17 07:29:40;;;;;;;5.97;4.03;;;8.10;99.90;;;;;;5038809;28;20481;-75
2023/05/17 07:32:08;;;;;;;6.17;3.97;;;8.10;99.90;;;;;;5037421;28;20927;-84
2023/05/17 07:34:35;;;;;;;6.40;4.10;;;8.10;99.90;;;;;;5040427;28;20445;-76
2023/05/17 07:37:02;;;;;;;9.13;4.83;;;8.10;99.90;;;;;;5037814;28;21037;-78
2023/05/17 07:39:29;;;;;;;6.73;2.50;;;8.10;99.90;;;;;;5038548;28;20538;-78
2023/05/17 07:41:56;;;;;;;3.47;3.17;;;8.20;99.90;;;;;;5038542;28;20461;-77
2023/05/17 07:44:24;;;;;;;11.67;6.47;;;8.20;99.90;;;;;;5042842;28;20480;-73
2023/05/17 07:46:51;;;;;;;12.20;8.90;;;8.10;99.90;;;;;;5042408;28;20519;-73
2023/05/17 07:49:18;;;;;;;17.47;15.73;;;8.20;99.90;;;;;;5044033;28;20512;-75
2023/05/17 07:51:45;;;;;;;13.70;7.10;;;8.10;99.90;;;;;;5041684;28;21252;-75
2023/05/17 07:54:22;;;;;;;6.43;2.63;;;8.10;99.90;;;;;;5042339;28;21260;-77
2023/05/17 07:56:49;;;;;;;3.77;3.07;;;8.00;99.90;;;;;;5041892;28;20467;-76
2023/05/17 07:59:16;;;;;;;2.67;1.93;;;8.00;99.90;;;;;;5042081;28;20468;-77
2023/05/17 08:01:44;;;;;;;3.43;1.90;;;8.10;99.90;;;;;;5042449;28;20512;-74
2023/05/17 08:04:13;;;;;;;2.47;1.77;;;8.10;99.90;;;;;;5042269;28;20453;-76
2023/05/17 08:06:40;;;;;;;7.83;1.57;;;8.10;99.90;;;;;;5042801;28;20567;-76
2023/05/17 08:09:07;;;;;;;4.13;2.63;;;8.00;99.90;;;;;;5041618;28;20520;-77
2023/05/17 08:11:34;;;;;;;4.70;2.07;;;8.00;99.90;;;;;;5041595;28;20454;-76
2023/05/17 08:14:01;;;;;;;2.97;1.90;;;8.00;99.90;;;;;;5042117;28;20480;-76
2023/05/17 08:16:28;;;;;;;7.50;2.57;;;8.00;99.90;;;;;;5041774;28;20804;-78
2023/05/17 08:18:56;;;;;;;1.67;1.57;;;8.00;99.90;;;;;;5042374;28;20462;-80
2023/05/17 08:21:23;;;;;;;3.50;1.73;;;7.90;99.90;;;;;;5042041;28;20971;-78
2023/05/17 08:23:50;;;;;;;4.00;1.97;;;7.90;99.90;;;;;;5042993;28;20874;-78
2023/05/17 08:26:17;;;;;;;2.20;2.00;;;8.00;99.90;;;;;;5041727;28;20576;-79
2023/05/17 08:28:45;;;;;;;3.63;1.63;;;8.00;99.90;;;;;;5040264;28;21051;-78
2023/05/17 08:31:12;;;;;;;3.37;2.00;;;8.00;99.90;;;;;;5043511;28;20450;-77
2023/05/17 08:33:39;;;;;;;2.77;1.57;;;8.00;99.90;;;;;;5040950;28;20501;-77
2023/05/17 08:36:08;;;;;;;7.00;1.57;;;7.90;99.90;;;;;;5038789;28;21003;-80
2023/05/17 08:38:36;;;;;;;3.73;1.33;;;8.00;99.90;;;;;;5030340;28;20940;-76
2023/05/17 08:41:03;;;;;;;4.93;4.40;;;8.10;99.90;;;;;;5028974;28;20495;-76
2023/05/17 08:43:31;;;;;;;4.00;1.37;;;8.00;99.90;;;;;;5040728;28;20474;-78
2023/05/17 08:45:58;;;;;;;5.30;2.80;;;8.00;99.90;;;;;;5041037;28;21026;-79
2023/05/17 08:48:26;;;;;;;6.80;3.80;;;7.90;99.90;;;;;;5041907;28;21053;-77
2023/05/17 08:50:56;;;;;;;2.63;1.07;;;7.90;99.90;;;;;;5040191;28;20582;-77
2023/05/17 08:53:25;;;;;;;2.30;1.17;;;7.90;99.90;;;;;;5040294;28;20469;-76
2023/05/17 08:55:59;;;;;;;2.30;1.07;;;7.90;99.90;;;;;;5041542;28;21239;-77
2023/05/17 08:58:31;;;;;;;2.20;0.80;;;7.80;99.90;;;;;;5040209;28;20521;-79
2023/05/17 09:00:59;;;;;;;7.63;1.10;;;7.90;99.90;;;;;;5040266;28;20983;-76
2023/05/17 09:03:29;;;;;;;3.57;0.87;;;8.00;99.90;;;;;;5040751;28;20461;-76
2023/05/17 09:05:56;;;;;;;5.20;0.77;;;7.90;99.90;;;;;;5039871;28;20461;-76
2023/05/17 09:08:25;;;;;;;2.60;1.20;;;7.90;99.90;;;;;;5039445;28;20497;-76
2023/05/17 09:10:53;;;;;;;1.07;0.70;;;7.90;99.90;;;;;;5041256;28;20456;-77
2023/05/17 09:13:20;;;;;;;6.20;0.80;;;8.00;99.90;;;;;;5040032;28;20473;-75
2023/05/17 09:15:48;;;;;;;2.50;1.20;;;8.10;99.90;;;;;;5039828;28;20489;-78
2023/05/17 09:18:15;;;;;;;2.17;1.07;;;8.20;99.90;;;;;;5040328;28;20465;-76
2023/05/17 09:20:42;;;;;;;3.10;1.00;;;8.30;99.90;;;;;;5039986;28;20807;-79
2023/05/17 09:23:12;;;;;;;6.77;1.60;;;8.30;99.90;;;;;;5040663;28;20469;-76
2023/05/17 09:25:47;;;;;;;2.33;1.00;;;8.10;99.90;;;;;;5038339;28;20464;-78
2023/05/17 09:28:14;;;;;;;4.67;1.63;;;8.10;99.90;;;;;;5041497;28;20456;-76
2023/05/17 09:30:41;;;;;;;1.00;0.90;;;8.10;99.90;;;;;;5041102;28;20476;-76
2023/05/17 09:33:09;;;;;;;2.93;1.63;;;8.30;99.90;;;;;;5039900;28;20491;-76
2023/05/17 09:35:37;;;;;;;4.73;1.20;;;8.30;99.90;;;;;;5041279;28;20830;-77
2023/05/17 09:38:06;;;;;;;2.30;1.57;;;8.40;99.90;;;;;;5040861;28;20530;-79
2023/05/17 09:40:34;;;;;;;1.70;0.80;;;8.40;99.90;;;;;;5039165;28;20461;-76
2023/05/17 09:43:02;;;;;;;1.33;1.23;;;8.40;99.90;;;;;;5039014;28;20833;-76
2023/05/17 09:45:31;;;;;;;2.80;1.43;;;8.30;99.90;;;;;;5040919;28;21147;-77
2023/05/17 09:48:12;;;;;;;3.67;1.07;;;8.20;99.90;;;;;;5038716;28;21380;-79
2023/05/17 09:50:45;;;;;;;1.53;1.17;;;8.50;99.90;;;;;;5039581;28;20488;-77
2023/05/17 09:53:26;;;;;;;1.30;0.97;;;8.60;99.90;;;;;;5040371;28;20917;-76
2023/05/17 09:55:54;;;;;;;3.67;0.87;;;8.50;99.90;;;;;;5040074;28;21055;-76
2023/05/17 09:58:23;;;;;;;1.40;1.20;;;8.70;99.90;;;;;;5038545;28;20472;-77
2023/05/17 10:00:53;;;;;;;4.23;1.50;;;8.80;99.90;;;;;;5039475;28;21210;-76
2023/05/17 10:03:21;;;;;;;1.00;0.90;;;9.20;99.90;;;;;;5039679;28;20461;-77
2023/05/17 10:05:50;;;;;;;5.37;1.13;;;9.50;99.90;;;;;;5038166;28;20472;-75
2023/05/17 10:08:21;;;;;;;2.00;1.10;;;9.80;99.90;;;;;;5041190;28;20450;-80
2023/05/17 10:10:49;;;;;;;1.33;0.87;;;10.00;99.90;;;;;;5039355;28;21216;-76
2023/05/17 10:13:23;;;;;;;2.77;0.67;;;9.50;99.90;;;;;;5039507;28;20475;-77
2023/05/17 10:15:53;;;;;;;1.73;0.83;;;9.50;99.90;;;;;;5039737;28;20552;-76
2023/05/17 10:18:22;;;;;;;1.47;0.90;;;9.30;99.90;;;;;;5040107;28;20489;-77
2023/05/17 10:20:50;;;;;;;2.47;1.17;;;9.30;99.90;;;;;;5040042;28;20869;-78
2023/05/17 10:23:19;;;;;;;3.13;1.00;;;9.30;99.90;;;;;;5039417;28;20475;-78
2023/05/17 10:25:47;;;;;;;3.03;0.80;;;9.10;99.90;;;;;;5039689;28;20477;-81
2023/05/17 10:28:17;;;;;;;2.40;0.90;;;9.00;99.90;;;;;;5035622;28;20473;-77
2023/05/17 10:30:44;;;;;;;2.90;1.00;;;8.90;99.90;;;;;;5039559;28;20477;-77
2023/05/17 10:33:14;;;;;;;3.70;1.10;;;8.90;99.90;;;;;;5035778;28;20505;-77
2023/05/17 10:35:43;;;;;;;1.17;0.87;;;8.70;99.90;;;;;;5035826;28;20462;-77
2023/05/17 10:38:10;;;;;;;2.77;0.77;;;8.80;99.90;;;;;;5036893;28;20555;-77
2023/05/17 10:40:39;;;;;;;1.57;0.87;;;8.80;99.90;;;;;;5038956;28;20530;-77
2023/05/17 10:43:09;;;;;;;2.80;0.73;;;8.70;99.90;;;;;;5040115;28;20453;-77
2023/05/17 10:45:37;;;;;;;2.30;0.90;;;8.80;99.90;;;;;;5039472;28;20499;-77
2023/05/17 10:48:05;;;;;;;0.97;0.87;;;8.70;99.90;;;;;;5039195;28;21170;-77
2023/05/17 10:50:39;;;;;;;1.73;1.10;;;8.60;99.90;;;;;;5037587;28;20975;-77
2023/05/17 10:53:09;;;;;;;2.20;0.80;;;8.60;99.90;;;;;;5037499;28;20465;-78
2023/05/17 10:55:39;;;;;;;0.90;0.73;;;8.70;99.90;;;;;;5039824;28;20453;-77
2023/05/17 10:58:18;;;;;;;2.47;1.00;;;8.80;99.90;;;;;;5039060;28;21264;-78
2023/05/17 11:00:47;;;;;;;1.63;0.60;;;8.70;99.90;;;;;;5038523;28;20606;-80
2023/05/17 11:03:15;;;;;;;4.83;0.80;;;8.50;99.90;;;;;;5039188;28;21148;-78
2023/05/17 11:05:45;;;;;;;1.53;1.00;;;8.60;99.90;;;;;;5038122;28;20476;-79
2023/05/17 11:08:14;;;;;;;1.67;1.03;;;8.80;99.90;;;;;;5038585;28;20472;-81
2023/05/17 11:11:11;;;;;;;0.87;0.60;;;8.70;99.90;;;;;;5039313;28;20893;-78
2023/05/17 11:13:46;;;;;;;1.93;0.60;;;8.70;99.90;;;;;;5036220;28;20501;-76
2023/05/17 11:16:16;;;;;;;1.37;0.60;;;8.70;99.90;;;;;;5036985;28;20465;-78
2023/05/17 11:18:47;;;;;;;2.90;1.00;;;8.80;99.90;;;;;;5042684;28;20459;-77
2023/05/17 11:21:16;;;;;;;1.17;0.70;;;8.80;99.90;;;;;;5043216;28;20575;-77
2023/05/17 11:23:44;;;;;;;0.70;0.70;;;8.80;99.90;;;;;;5041012;28;20469;-80
2023/05/17 11:26:21;;;;;;;1.53;0.80;;;9.00;99.90;;;;;;5041869;28;20465;-78
2023/05/17 11:28:48;;;;;;;1.50;0.60;;;9.10;99.90;;;;;;5043327;28;20605;-77
2023/05/17 11:31:15;;;;;;;1.53;0.60;;;9.00;99.90;;;;;;5043182;28;20502;-78
2023/05/17 11:33:43;;;;;;;0.67;0.60;;;8.90;99.90;;;;;;5040955;28;20842;-76
2023/05/17 11:36:20;;;;;;;0.57;0.50;;;9.00;99.90;;;;;;5043916;28;20445;-79
2023/05/17 11:38:50;;;;;;;0.60;0.50;;;9.10;99.90;;;;;;5041746;28;20460;-79
2023/05/17 11:41:20;;;;;;;1.50;0.73;;;9.20;99.90;;;;;;5039394;28;20502;-77
2023/05/17 11:43:48;;;;;;;0.80;0.50;;;9.10;99.90;;;;;;5041399;28;20530;-77
2023/05/17 11:46:22;;;;;;;3.87;2.00;;;9.10;99.90;;;;;;5041850;28;20464;-77
2023/05/17 11:48:52;;;;;;;3.03;0.97;;;9.10;99.90;;;;;;5043645;28;20479;-82
2023/05/17 11:51:20;;;;;;;1.77;1.00;;;9.40;99.90;;;;;;5043402;28;21305;-77
2023/05/17 11:53:48;;;;;;;1.97;0.80;;;9.50;99.90;;;;;;5042734;28;21319;-76
2023/05/17 11:56:16;;;;;;;2.10;1.27;;;9.70;99.90;;;;;;5040724;28;20522;-79
2023/05/17 11:58:44;;;;;;;6.80;1.20;;;9.70;99.90;;;;;;5042066;28;20465;-73
2023/05/17 12:01:11;;;;;;;5.67;2.73;;;9.70;99.90;;;;;;5041093;28;20475;-78
2023/05/17 12:03:38;;;;;;;1.93;0.90;;;9.70;99.90;;;;;;5043402;28;20827;-77
2023/05/17 12:06:08;;;;;;;2.97;0.80;;;9.50;99.90;;;;;;5042109;28;20460;-77
2023/05/17 12:08:38;;;;;;;2.00;0.80;;;9.40;99.90;;;;;;5041892;28;20459;-77
2023/05/17 12:11:05;;;;;;;3.23;2.37;;;9.40;99.90;;;;;;5042158;28;20484;-77
2023/05/17 12:13:34;;;;;;;6.33;1.97;;;9.50;99.90;;;;;;5042208;28;20485;-77
2023/05/17 12:16:04;;;;;;;1.57;0.87;;;9.60;99.90;;;;;;5040928;28;20461;-78
2023/05/17 12:18:36;;;;;;;2.07;0.70;;;9.40;99.90;;;;;;5040301;28;20457;-79
2023/05/17 12:21:04;;;;;;;1.70;0.60;;;9.60;99.90;;;;;;5042472;28;21015;-78
2023/05/17 12:23:32;;;;;;;0.97;0.67;;;9.70;99.90;;;;;;5041865;28;20515;-78
2023/05/17 12:26:09;;;;;;;8.03;1.17;;;9.90;99.90;;;;;;5043199;28;20506;-79
2023/05/17 12:28:37;;;;;;;1.77;0.60;;;9.70;99.90;;;;;;5040550;28;20766;-79
2023/05/17 12:31:07;;;;;;;1.43;0.70;;;9.80;99.90;;;;;;5038827;28;20508;-80
2023/05/17 12:33:39;;;;;;;2.73;0.87;;;10.00;99.90;;;;;;5040429;28;20464;-78
2023/05/17 12:36:08;;;;;;;1.80;0.63;;;10.10;99.90;;;;;;5040300;28;20469;-77
2023/05/17 12:38:36;;;;;;;1.77;0.60;;;10.20;99.90;;;;;;5037665;28;20477;-77
2023/05/17 12:41:04;;;;;;;1.03;0.70;;;10.50;99.90;;;;;;5039819;28;20934;-77
2023/05/17 12:43:35;;;;;;;1.87;0.73;;;10.80;99.90;;;;;;5038752;28;20497;-77
2023/05/17 12:46:07;;;;;;;1.70;0.80;;;10.80;99.90;;;;;;5040595;28;20476;-79
2023/05/17 12:48:35;;;;;;;0.90;0.60;;;10.80;99.90;;;;;;5042225;28;20455;-79
2023/05/17 12:51:09;;;;;;;2.20;0.93;;;10.70;99.90;;;;;;5042829;28;20497;-78
2023/05/17 12:53:40;;;;;;;1.00;0.70;;;10.70;99.90;;;;;;5042453;28;20464;-79
2023/05/17 12:56:08;;;;;;;1.27;1.17;;;10.50;99.90;;;;;;5043377;28;20568;-78
2023/05/17 12:58:36;;;;;;;5.37;0.90;;;10.20;99.90;;;;;;5042160;28;20469;-77